Austinville, Pennsylvania
Current Conditions -  °F | °C
As of 9:53 AM on Saturday 25 Oct 2014 (Local Time) from KELM Reporting Station
Overcast Overcast  
Wind Chill: 47°   Ceiling: 4500
Heat Index: 49°   Visibility: 10mi
Dew Point: 41°   Wind: 6mph
Humidity: 74%   Direction: 240°WSW
Pressure: 29.85"   Gusts: NA
Location:  41.8495°N, 76.7925°W
Report Text: KELM 251353Z 24005KT 10SM OVC045 09/05 A2985 RMK AO2 SLP111 T00940050
Loading
Personal Weather Stations






























Interactive Weather Map
Tropical Storm Tracking
New forecast layout! Learn more

10-Day Weather Forecast

Advertisements
Track Severe Weather on mobile